Bedford Park, Illinois
Current Conditions -  °F | °C
As of 6:53 PM on Wednesday 22 Oct 2014 (Local Time) from KMDW Reporting Station
Clear Clear  
Wind Chill:   Ceiling: Unl
Heat Index:   Visibility: 10mi
Dew Point:   Wind: 7mph
Humidity: 66%   Direction: 100°E
Pressure: 30.28"   Gusts: NA
Location:  41.76°N, 87.8°W
Report Text: KMDW 222353Z 10006KT 10SM CLR 09/03 A3028 RMK AO2 SLP257 T00940033 10133 20094 56009
Loading
Personal Weather Stations






























Interactive Weather Map
Tropical Storm Tracking
New forecast layout! Learn more

10-Day Weather Forecast

Advertisements
Track Severe Weather on mobile